Mountain Home, AR (72653)

7:00 AM CDT on August 28, 2016 (GMT -0500)
NAEC Mtn Home | | Change Station

Elev 912 ft 36.35 °N, 92.36 °W | Updated 2 minutes ago

Mist
Mist
71.6 °F
Feels Like 71.6 °F
N
0.8
Wind Variable Wind from East
Gusts 3.0 mph

Today
High -- | Low -- °F
--% Chance of Precip.
Yesterday
High -- | Low -- °F
Precip. -- in
Pressure 30.10 in
Visibility 1.0 miles
Clouds
Dew Point 70 °F
Humidity 93%
Rainfall 0.00 in
Snow Depth Not available.
6:38 AM 7:42 PM
Waning Crescent, 16% visible
METAR KBPK 281153Z AUTO 00000KT 1SM BR VV003 21/21 A3013 RMK AO2 VIS 1/2V3 SLP193 70012 T02110211 10228 20211 53012
Pressure 30.10 in
Visibility 1.0 miles
Clouds
Dew Point 70 °F
Humidity 93%
Rainfall 0.00 in
Snow Depth Not available.
6:38 AM 7:42 PM
Waning Crescent, 16% visible
METAR KBPK 281153Z AUTO 00000KT 1SM BR VV003 21/21 A3013 RMK AO2 VIS 1/2V3 SLP193 70012 T02110211 10228 20211 53012

10-Day Weather Forecast

Almanac

Astronomy

Aug. 28, 2016 Rise Set
Actual Time
Civil Twilight
Nautical Twilight
Astronomical Twilight
Moon
Length of Visible Light
Length of Day
Tomorrow will be .
, % of the Moon is Illuminated

Today's Extremes

State Highs State Lows

Community

WunderPhotos

Upload Photos

1,935,549 photos uploaded!

WunderBlog® & News

Nearby

Air Quality

  Air Quality AQ Index Pollutant
Not available.

Snow Depth

Station Depth Elevation

Earthquake Activity

City Distance Mag. Time & Date
Minimum magnitude displayed is 2.5.

Coastal Water Temperatures

Place Temperature

Stations

Nearby Weather Stations

Station Location Temp. Windchill Dew Point Humidity Wind Precip. Elev Updated Type
                   

Watches & Warnings

There are currently no watches in effect.